createdAt,value
2019-04-06T00:03:17.832Z,6.19
2019-04-06T00:05:48.149Z,6.24
2019-04-06T00:08:18.185Z,6.38
2019-04-06T00:13:27.954Z,6.42
2019-04-06T00:15:58.006Z,6.42
2019-04-06T00:18:28.052Z,6.51
2019-04-06T00:23:37.437Z,6.58
2019-04-06T00:28:47.242Z,6.59
2019-04-06T00:31:17.273Z,6.58
2019-04-06T00:33:47.305Z,6.64
2019-04-06T00:38:56.980Z,6.68
2019-04-06T00:44:06.386Z,6.80
2019-04-06T00:49:16.095Z,6.70
2019-04-06T00:54:25.758Z,6.77
2019-04-06T00:59:35.189Z,6.83
2019-04-06T01:04:44.583Z,6.87
2019-04-06T01:09:53.982Z,6.84
2019-04-06T01:12:24.030Z,6.74
2019-04-06T01:14:54.059Z,6.69
2019-04-06T01:22:42.832Z,6.88
2019-04-06T01:27:52.537Z,6.95
2019-04-06T01:30:22.765Z,6.85
2019-04-06T01:32:52.814Z,6.97
2019-04-06T01:38:02.542Z,7.14
2019-04-06T01:40:32.554Z,6.87
2019-04-06T01:45:41.964Z,6.90
2019-04-06T01:48:12.305Z,6.81
2019-04-06T01:50:42.651Z,6.78
2019-04-06T01:53:12.717Z,6.78
2019-04-06T01:55:42.742Z,6.72
2019-04-06T02:00:52.443Z,6.68
2019-04-06T02:03:22.489Z,6.86
2019-04-06T02:11:11.544Z,6.70
2019-04-06T02:13:41.868Z,6.61
2019-04-06T02:18:51.640Z,6.76
2019-04-06T02:21:21.666Z,6.59
2019-04-06T02:23:51.694Z,6.62
2019-04-06T02:29:01.211Z,6.53
2019-04-06T02:31:31.176Z,6.49
2019-04-06T02:34:01.194Z,6.48
2019-04-06T02:39:10.936Z,6.40
2019-04-06T02:44:20.478Z,6.51
2019-04-06T02:49:29.781Z,6.42
2019-04-06T02:54:39.903Z,6.53
2019-04-06T02:59:49.533Z,6.55
2019-04-06T03:07:38.619Z,6.55
2019-04-06T03:10:09.134Z,6.41
2019-04-06T03:15:18.407Z,6.46
2019-04-06T03:20:28.175Z,6.50
2019-04-06T03:22:58.210Z,6.46
2019-04-06T03:28:07.609Z,6.70
2019-04-06T03:33:17.305Z,6.47
2019-04-06T03:35:49.349Z,6.50
2019-04-06T03:38:17.382Z,6.52
2019-04-06T03:43:27.077Z,6.55
2019-04-06T03:45:57.104Z,6.57
2019-04-06T03:48:27.143Z,6.56
2019-04-06T03:50:57.185Z,6.61
2019-04-06T03:53:27.537Z,6.70
2019-04-06T04:01:16.579Z,6.62
2019-04-06T04:03:46.617Z,6.77
2019-04-06T04:06:16.650Z,6.78
2019-04-06T04:11:26.061Z,6.65
2019-04-06T04:16:35.442Z,6.74
2019-04-06T04:21:45.139Z,6.62
2019-04-06T04:24:15.192Z,6.53
2019-04-06T04:29:24.929Z,6.73
2019-04-06T04:34:34.494Z,6.58
2019-04-06T04:37:04.531Z,6.61
2019-04-06T04:47:32.981Z,6.74
2019-04-06T04:50:03.505Z,6.54
2019-04-06T04:52:33.630Z,6.56
2019-04-06T04:57:45.067Z,6.66
2019-04-06T05:00:13.077Z,6.62
2019-04-06T05:05:22.788Z,6.51
2019-04-06T05:07:52.833Z,6.42
2019-04-06T05:10:23.210Z,6.41
2019-04-06T05:12:53.562Z,6.45
2019-04-06T05:20:42.288Z,6.51
2019-04-06T05:23:12.165Z,6.57
2019-04-06T05:25:42.562Z,6.66
2019-04-06T05:28:12.616Z,6.76
2019-04-06T05:33:22.023Z,6.71
2019-04-06T05:35:52.340Z,6.75
2019-04-06T05:38:22.650Z,6.73
2019-04-06T05:40:52.772Z,6.76
2019-04-06T05:43:22.817Z,6.62
2019-04-06T05:48:32.532Z,6.57
2019-04-06T05:51:02.708Z,6.66
2019-04-06T05:53:32.588Z,6.70
2019-04-06T05:56:02.632Z,6.73
2019-04-06T05:58:32.685Z,6.94
2019-04-06T06:01:04.102Z,6.93
2019-04-06T06:03:33.163Z,6.79
2019-04-06T06:08:42.554Z,6.76
2019-04-06T06:11:12.916Z,6.76
2019-04-06T06:13:43.242Z,6.73
2019-04-06T06:18:52.894Z,6.85
2019-04-06T06:24:02.290Z,6.54
2019-04-06T06:29:11.680Z,6.72
2019-04-06T06:34:21.056Z,6.87
2019-04-06T06:39:30.455Z,7.20
2019-04-06T06:44:40.086Z,7.48
2019-04-06T06:49:49.552Z,7.35
2019-04-06T06:52:19.576Z,7.19
2019-04-06T06:54:49.945Z,6.99
2019-04-06T06:57:20.008Z,6.99
2019-04-06T07:02:30.011Z,7.03
2019-04-06T07:05:00.346Z,7.12
2019-04-06T07:07:30.372Z,7.54
2019-04-06T07:10:05.948Z,7.77
2019-04-06T07:12:31.048Z,7.72
2019-04-06T07:15:01.086Z,7.56
2019-04-06T07:17:31.467Z,7.62
2019-04-06T07:20:01.626Z,7.55
2019-04-06T07:22:31.891Z,7.34
2019-04-06T07:25:01.957Z,7.26
2019-04-06T07:27:32.237Z,7.46
2019-04-06T07:30:02.293Z,7.40
2019-04-06T07:32:32.416Z,7.17
2019-04-06T07:35:02.457Z,7.51
2019-04-06T07:37:32.856Z,7.75
2019-04-06T07:42:42.766Z,7.79
2019-04-06T07:45:12.807Z,7.78
2019-04-06T07:47:43.130Z,8.03
2019-04-06T07:50:13.538Z,8.18
2019-04-06T07:52:43.879Z,8.10
2019-04-06T07:55:13.947Z,7.84
2019-04-06T07:57:44.327Z,8.09
2019-04-06T08:00:14.740Z,8.16
2019-04-06T08:02:44.911Z,8.25
2019-04-06T08:05:14.803Z,8.18
2019-04-06T08:07:45.177Z,8.21
2019-04-06T08:10:15.501Z,8.25
2019-04-06T08:12:45.547Z,8.46
2019-04-06T08:15:15.964Z,8.38
2019-04-06T08:17:46.012Z,8.53
2019-04-06T08:20:16.077Z,8.70
2019-04-06T08:22:46.080Z,8.78
2019-04-06T08:25:16.116Z,8.75
2019-04-06T08:27:46.421Z,8.76
2019-04-06T08:30:16.471Z,8.84
2019-04-06T08:32:46.527Z,8.86
2019-04-06T08:35:25.427Z,9.15
2019-04-06T08:37:46.614Z,9.27
2019-04-06T08:40:16.642Z,9.53
2019-04-06T08:42:46.965Z,9.67
2019-04-06T08:45:17.007Z,9.74
2019-04-06T08:47:47.076Z,9.99
2019-04-06T08:50:17.105Z,10.40
2019-04-06T08:52:47.596Z,10.76
2019-04-06T08:57:56.975Z,10.42
2019-04-06T09:00:26.934Z,10.52
2019-04-06T09:05:36.321Z,10.57
2019-04-06T09:08:06.787Z,10.79
2019-04-06T09:10:37.090Z,10.90
2019-04-06T09:13:07.132Z,11.10
2019-04-06T09:15:37.503Z,11.18
2019-04-06T09:18:07.533Z,11.38
2019-04-06T09:20:37.590Z,11.66
2019-04-06T09:23:07.623Z,11.68
2019-04-06T09:25:37.657Z,11.75
2019-04-06T09:28:08.165Z,11.73
2019-04-06T09:33:17.469Z,11.97
2019-04-06T09:35:47.924Z,11.89
2019-04-06T09:38:18.098Z,11.81
2019-04-06T09:40:50.960Z,11.83
2019-04-06T09:43:21.210Z,12.02
2019-04-06T09:45:51.617Z,12.11
2019-04-06T09:48:21.657Z,12.00
2019-04-06T09:50:51.770Z,11.80
2019-04-06T09:53:21.773Z,11.61
2019-04-06T09:55:51.858Z,11.73
2019-04-06T09:58:21.888Z,11.92
2019-04-06T10:06:11.311Z,12.34
2019-04-06T10:08:41.343Z,12.34
2019-04-06T10:11:11.740Z,12.43
2019-04-06T10:19:00.530Z,12.69
2019-04-06T10:21:30.841Z,12.79
2019-04-06T10:24:01.162Z,12.92
2019-04-06T10:26:31.225Z,13.15
2019-04-06T10:29:01.264Z,13.09
2019-04-06T10:31:31.587Z,13.29
2019-04-06T10:34:01.400Z,13.43
2019-04-06T10:36:32.151Z,13.81
2019-04-06T10:39:02.058Z,13.96
2019-04-06T10:41:32.113Z,14.06
2019-04-06T10:44:02.174Z,14.18
2019-04-06T10:46:32.222Z,14.11
2019-04-06T10:49:02.260Z,14.27
2019-04-06T10:51:32.696Z,14.57
2019-04-06T10:54:03.052Z,14.65
2019-04-06T10:56:32.770Z,14.56
2019-04-06T11:01:42.194Z,14.79
2019-04-06T11:09:31.373Z,15.20
2019-04-06T11:12:01.792Z,15.40
2019-04-06T11:14:32.179Z,15.45
2019-04-06T11:17:02.434Z,15.66
2019-04-06T11:19:32.765Z,15.66
2019-04-06T11:22:02.818Z,15.80
2019-04-06T11:24:32.858Z,15.88
2019-04-06T11:27:02.952Z,16.09
2019-04-06T11:29:32.994Z,16.11
2019-04-06T11:34:42.422Z,16.24
2019-04-06T11:37:12.797Z,16.30
2019-04-06T11:39:42.835Z,16.31
2019-04-06T11:44:52.867Z,16.28
2019-04-06T11:47:23.135Z,16.33
2019-04-06T11:57:51.824Z,16.72
2019-04-06T12:00:26.569Z,16.70
2019-04-06T12:05:31.633Z,16.82
2019-04-06T12:10:41.355Z,16.88
2019-04-06T12:21:09.827Z,17.01
2019-04-06T12:23:39.858Z,16.93
2019-04-06T12:26:09.913Z,16.90
2019-04-06T12:31:19.619Z,17.11
2019-04-06T12:33:49.965Z,16.90
2019-04-06T12:36:20.623Z,17.01
2019-04-06T12:41:30.702Z,17.12
2019-04-06T12:44:00.738Z,17.20
2019-04-06T12:46:31.043Z,17.18
2019-04-06T12:49:01.084Z,17.22
2019-04-06T12:51:31.140Z,17.15
2019-04-06T12:59:21.098Z,17.41
2019-04-06T13:01:51.318Z,17.45
2019-04-06T13:04:21.126Z,17.38
2019-04-06T13:09:30.884Z,17.49
2019-04-06T13:14:40.627Z,17.29
2019-04-06T13:19:50.676Z,17.60
2019-04-06T13:27:39.242Z,17.57
2019-04-06T13:30:09.606Z,17.55
2019-04-06T13:32:39.358Z,17.56
2019-04-06T13:35:09.425Z,17.38
2019-04-06T13:40:19.398Z,17.43
2019-04-06T13:45:29.071Z,17.56
2019-04-06T13:50:39.353Z,17.53
2019-04-06T13:58:28.171Z,17.47
2019-04-06T14:00:58.531Z,17.52
2019-04-06T14:03:28.907Z,17.40
2019-04-06T14:11:17.912Z,17.48
2019-04-06T14:13:47.958Z,17.27
2019-04-06T14:18:57.934Z,17.35
2019-04-06T14:21:28.316Z,17.34
2019-04-06T14:23:58.259Z,17.42
2019-04-06T14:26:28.347Z,17.30
2019-04-06T14:28:58.421Z,17.25
2019-04-06T14:31:30.344Z,17.28
2019-04-06T14:36:38.378Z,17.45
2019-04-06T14:41:47.817Z,17.22
2019-04-06T14:44:17.821Z,17.53
2019-04-06T14:46:48.173Z,17.42
2019-04-06T14:49:29.405Z,17.35
2019-04-06T14:54:28.053Z,17.40
2019-04-06T14:59:37.319Z,17.34
2019-04-06T15:02:07.741Z,17.40
2019-04-06T15:04:37.978Z,17.40
2019-04-06T15:07:11.491Z,17.52
2019-04-06T15:09:38.206Z,17.43
2019-04-06T15:12:08.612Z,17.26
2019-04-06T15:14:38.936Z,17.33
2019-04-06T15:17:08.951Z,17.24
2019-04-06T15:19:39.010Z,17.29
2019-04-06T15:22:09.055Z,17.28
2019-04-06T15:24:39.372Z,17.27
2019-04-06T15:27:09.395Z,17.48
2019-04-06T15:29:39.810Z,17.28
2019-04-06T15:32:09.998Z,17.26
2019-04-06T15:34:39.901Z,17.38
2019-04-06T15:37:09.929Z,17.39
2019-04-06T15:44:58.954Z,17.09
2019-04-06T15:50:08.631Z,17.25
2019-04-06T15:57:57.438Z,16.94
2019-04-06T16:00:27.766Z,16.93
2019-04-06T16:08:16.888Z,16.73
2019-04-06T16:10:46.947Z,17.04
2019-04-06T16:15:56.607Z,16.90
2019-04-06T16:18:26.984Z,16.85
2019-04-06T16:20:58.436Z,16.78
2019-04-06T16:23:26.989Z,16.81
2019-04-06T16:31:16.014Z,16.76
2019-04-06T16:33:46.077Z,16.61
2019-04-06T16:38:56.033Z,16.76
2019-04-06T16:44:05.224Z,16.84
2019-04-06T16:49:14.624Z,16.61
2019-04-06T16:54:24.545Z,16.63
2019-04-06T16:59:33.782Z,16.59
2019-04-06T17:04:42.845Z,16.41
2019-04-06T17:09:53.229Z,16.41
2019-04-06T17:17:41.974Z,16.24
2019-04-06T17:20:12.450Z,16.06
2019-04-06T17:22:42.034Z,16.15
2019-04-06T17:30:31.480Z,15.91
2019-04-06T17:33:01.620Z,15.79
2019-04-06T17:38:10.628Z,15.63
2019-04-06T17:40:41.208Z,15.68
2019-04-06T17:53:49.131Z,15.52
2019-04-06T17:56:19.188Z,15.52
2019-04-06T18:01:28.691Z,15.05
2019-04-06T18:03:59.857Z,14.98
2019-04-06T18:09:08.500Z,14.64
2019-04-06T18:14:18.980Z,14.15
2019-04-06T18:19:31.573Z,13.84
2019-04-06T18:22:01.218Z,13.83
2019-04-06T18:24:31.285Z,13.73
2019-04-06T18:29:41.064Z,13.56
2019-04-06T18:32:10.741Z,13.52
2019-04-06T18:34:41.389Z,13.47
2019-04-06T18:37:11.235Z,13.47
2019-04-06T18:39:40.985Z,13.36
2019-04-06T18:42:11.820Z,13.32
2019-04-06T18:44:41.886Z,13.29
2019-04-06T18:47:11.797Z,13.19
2019-04-06T18:49:42.412Z,13.18
2019-04-06T18:52:12.270Z,13.13
2019-04-06T18:54:42.503Z,13.07
2019-04-06T18:59:52.646Z,13.11
2019-04-06T19:02:22.570Z,13.05
2019-04-06T19:04:52.482Z,12.98
2019-04-06T19:07:22.624Z,12.95
2019-04-06T19:09:52.803Z,12.91
2019-04-06T19:12:22.834Z,12.84
2019-04-06T19:14:53.247Z,12.82
2019-04-06T19:17:23.604Z,12.78
2019-04-06T19:19:53.856Z,12.73
2019-04-06T19:22:24.007Z,12.67
2019-04-06T19:24:53.755Z,12.64
2019-04-06T19:27:23.875Z,12.58
2019-04-06T19:29:54.242Z,12.59
2019-04-06T19:32:24.278Z,12.54
2019-04-06T19:34:54.312Z,12.56
2019-04-06T19:40:03.951Z,12.56
2019-04-06T19:42:34.360Z,12.49
2019-04-06T19:45:04.585Z,12.35
2019-04-06T19:47:34.463Z,12.26
2019-04-06T19:52:44.192Z,12.19
2019-04-06T19:55:14.010Z,12.14
2019-04-06T19:57:44.121Z,12.06
2019-04-06T20:00:14.502Z,11.99
2019-04-06T20:02:44.823Z,11.92
2019-04-06T20:07:54.774Z,11.89
2019-04-06T20:10:24.836Z,11.78
2019-04-06T20:12:54.866Z,11.69
2019-04-06T20:20:45.214Z,11.55
2019-04-06T20:25:54.332Z,11.46
2019-04-06T20:28:24.673Z,11.40
2019-04-06T20:30:54.494Z,11.23
2019-04-06T20:33:24.864Z,11.30
2019-04-06T20:35:55.358Z,11.27
2019-04-06T20:38:25.274Z,11.07
2019-04-06T20:40:55.322Z,11.05
2019-04-06T20:43:25.631Z,11.03
2019-04-06T20:45:55.668Z,10.92
2019-04-06T20:48:25.773Z,10.94
2019-04-06T20:50:56.318Z,10.84
2019-04-06T20:53:26.112Z,10.77
2019-04-06T20:55:56.456Z,10.76
2019-04-06T21:01:05.609Z,10.68
2019-04-06T21:06:14.988Z,10.71
2019-04-06T21:08:45.915Z,10.58
2019-04-06T21:11:15.404Z,10.56
2019-04-06T21:16:24.834Z,10.48
2019-04-06T21:21:34.691Z,10.37
2019-04-06T21:24:04.699Z,10.27
2019-04-06T21:26:35.016Z,10.24
2019-04-06T21:31:44.742Z,10.41
2019-04-06T21:34:16.781Z,10.13
2019-04-06T21:39:24.549Z,9.96
2019-04-06T21:41:54.584Z,10.05
2019-04-06T21:44:24.633Z,9.87
2019-04-06T21:49:34.443Z,9.94
2019-04-06T21:54:43.877Z,9.42
2019-04-06T21:59:53.517Z,9.61
2019-04-06T22:02:24.092Z,9.81
2019-04-06T22:04:53.577Z,10.27
2019-04-06T22:07:24.249Z,10.43
2019-04-06T22:09:53.714Z,10.43
2019-04-06T22:12:23.932Z,10.38
2019-04-06T22:14:54.236Z,10.25
2019-04-06T22:17:24.406Z,10.22
2019-04-06T22:19:54.180Z,10.45
2019-04-06T22:22:24.820Z,10.47
2019-04-06T22:24:54.298Z,10.47
2019-04-06T22:27:24.335Z,10.49
2019-04-06T22:29:54.761Z,10.45
2019-04-06T22:32:25.538Z,10.40
2019-04-06T22:34:55.681Z,10.32
2019-04-06T22:37:25.596Z,10.33
2019-04-06T22:39:55.292Z,10.41
2019-04-06T22:42:25.322Z,10.35
2019-04-06T22:44:55.945Z,10.46
2019-04-06T22:47:25.404Z,10.35
2019-04-06T22:49:55.904Z,10.18
2019-04-06T22:52:25.489Z,10.25
2019-04-06T22:54:55.919Z,10.18
2019-04-06T22:57:26.139Z,10.14
2019-04-06T22:59:56.386Z,10.09
2019-04-06T23:02:26.232Z,10.04
2019-04-06T23:04:56.279Z,10.14
2019-04-06T23:07:27.014Z,9.90
2019-04-06T23:09:56.351Z,10.08
2019-04-06T23:12:26.749Z,9.91
2019-04-06T23:14:56.846Z,9.84
2019-04-06T23:17:27.352Z,9.84
2019-04-06T23:19:57.796Z,9.84
2019-04-06T23:22:27.638Z,9.89
2019-04-06T23:24:58.029Z,9.84
2019-04-06T23:27:28.073Z,9.75
2019-04-06T23:29:58.765Z,9.70
2019-04-06T23:32:28.125Z,9.69
2019-04-06T23:35:01.851Z,9.66
2019-04-06T23:40:08.366Z,9.67
2019-04-06T23:42:38.827Z,9.66
2019-04-06T23:45:08.375Z,9.64
2019-04-06T23:47:38.765Z,9.71
2019-04-06T23:50:08.786Z,9.48
2019-04-06T23:52:39.178Z,9.32
2019-04-06T23:55:09.480Z,9.30
2019-04-06T23:57:40.093Z,9.23
